Time;durP1;ratioP1;P1;durP2;ratioP2;P2;SDS_P1;SDS_P2;PMS_P1;PMS_P2;Temp;Humidity;BMP_temperature;BMP_pressure;BME280_temperature;BME280_humidity;BME280_pressure;Samples;Min_cycle;Max_cycle;Signal;HPM_P1;HPM_P2
2022/11/10 00:01:09;;;;;;;;;9.00;9.00;;;;;9.84;79.30;101291.72;6280170;22;47198;-93
2022/11/10 00:03:37;;;;;;;;;7.00;7.00;;;;;9.40;78.57;101228.63;6251753;22;45423;-94
2022/11/10 00:06:05;;;;;;;;;9.25;7.50;;;;;9.80;78.91;101311.13;6283954;22;45338;-93
2022/11/10 00:08:30;;;;;;;;;8.00;8.00;;;;;8.36;78.77;101072.53;6286646;22;45173;-92
2022/11/10 00:10:56;;;;;;;;;12.25;9.00;;;;;8.16;78.95;101038.38;6258259;22;48228;-93
2022/11/10 00:13:26;;;;;;;;;12.50;10.50;;;;;9.11;78.91;101206.75;6258816;22;45349;-93
2022/11/10 00:18:37;;;;;;;;;10.50;9.00;;;;;8.63;79.09;101117.31;6292498;22;45173;-93
2022/11/10 00:21:08;;;;;;;;;10.25;10.25;;;;;8.55;79.39;101114.69;6281785;22;47579;-93
2022/11/10 00:23:34;;;;;;;;;10.25;6.75;;;;;8.88;78.80;101189.25;6281643;22;45359;-93
2022/11/10 00:25:59;;;;;;;;;9.75;7.75;;;;;9.63;79.54;101324.41;6259304;22;45304;-92
2022/11/10 00:28:25;;;;;;;;;10.00;9.50;;;;;8.03;78.64;101055.06;6260708;22;44922;-92
2022/11/10 00:30:51;;;;;;;;;8.50;8.50;;;;;8.44;79.23;101133.16;6260689;22;47096;-92
2022/11/10 00:33:17;;;;;;;;;9.00;8.75;;;;;8.84;78.77;101203.34;6281056;22;45198;-92
2022/11/10 00:35:42;;;;;;;;;10.50;8.25;;;;;8.71;79.43;101197.22;6232448;22;45168;-92
2022/11/10 00:38:08;;;;;;;;;8.50;8.50;;;;;8.22;79.13;101115.63;6285460;22;45111;-92
2022/11/10 00:40:33;;;;;;;;;11.00;7.00;;;;;9.16;79.59;101300.81;6258127;22;46876;-92
2022/11/10 00:42:59;;;;;;;;;11.25;11.25;;;;;8.47;79.29;101163.88;6284992;22;45143;-92
2022/11/10 00:45:26;;;;;;;;;12.00;10.50;;;;;8.44;79.34;101163.88;6285035;22;45204;-93
2022/11/10 00:47:51;;;;;;;;;12.00;9.25;;;;;9.03;79.17;101265.69;6279542;22;45254;-92
2022/11/10 00:50:17;;;;;;;;;13.25;13.25;;;;;8.92;79.43;101262.19;6255432;22;46910;-93
2022/11/10 00:52:43;;;;;;;;;13.75;9.50;;;;;8.33;79.50;101150.69;6287082;22;45383;-92
2022/11/10 00:55:09;;;;;;;;;13.00;10.75;;;;;8.45;79.28;101198.13;6279029;22;45400;-92
2022/11/10 00:57:34;;;;;;;;;10.50;10.00;;;;;8.25;79.10;101158.63;6278307;22;45308;-92
2022/11/10 01:00:01;;;;;;;;;12.75;10.25;;;;;7.73;79.31;101085.81;6257098;22;46402;-92
2022/11/10 01:02:30;;;;;;;;;13.00;11.25;;;;;9.01;79.42;101308.75;6283283;22;46076;-93
2022/11/10 01:04:56;;;;;;;;;15.00;12.00;;;;;7.52;78.86;101068.28;6289627;22;45218;-93
2022/11/10 01:07:34;;;;;;;;;14.00;12.25;;;;;9.27;79.61;101358.81;6263781;22;45318;-93
2022/11/10 01:10:00;;;;;;;;;12.00;9.75;;;;;8.84;79.20;101309.66;6295115;22;45538;-91
2022/11/10 01:12:31;;;;;;;;;12.50;10.00;;;;;9.23;79.80;101386.97;6284371;22;45158;-93
2022/11/10 01:14:56;;;;;;;;;12.50;10.25;;;;;8.80;79.49;101299.13;6260222;22;45475;-93
2022/11/10 01:17:24;;;;;;;;;12.50;10.75;;;;;8.37;79.42;101228.84;6288623;22;44884;-90
2022/11/10 01:19:50;;;;;;;;;9.25;7.00;;;;;7.35;79.36;101046.34;6282514;22;47675;-92
2022/11/10 01:22:15;;;;;;;;;6.75;5.50;;;;;7.43;79.26;101063.00;6259951;22;45281;-91
2022/11/10 01:24:42;;;;;;;;;5.75;5.50;;;;;7.40;79.40;101060.38;6252449;22;45159;-93
2022/11/10 01:27:09;;;;;;;;;12.50;10.00;;;;;8.17;79.23;101205.16;6278595;22;45200;-93
2022/11/10 01:29:34;;;;;;;;;8.50;8.50;;;;;8.29;79.62;101230.59;6275146;22;46708;-92
2022/11/10 01:32:00;;;;;;;;;7.50;7.50;;;;;8.96;79.43;101356.22;6278270;22;44702;-93
2022/11/10 01:34:25;;;;;;;;;10.00;8.25;;;;;7.22;79.64;101046.31;6285942;22;45457;-92
2022/11/10 01:36:51;;;;;;;;;6.25;6.25;;;;;7.96;79.71;101184.97;6252908;22;45194;-93
2022/11/10 01:39:16;;;;;;;;;6.00;5.00;;;;;8.43;79.78;101283.31;6260338;22;46305;-92
2022/11/10 01:48:35;;;;;;;;;3.50;3.50;;;;;8.66;80.09;101310.53;6289147;22;45281;-90
2022/11/10 01:51:21;;;;;;;;;6.50;6.50;;;;;9.10;79.75;101397.53;6251362;22;46653;-90
2022/11/10 01:53:58;;;;;;;;;5.25;5.25;;;;;8.92;80.19;101369.41;6281085;22;45948;-92
2022/11/10 01:56:27;;;;;;;;;6.50;5.25;;;;;8.74;80.09;101330.75;6282799;22;44624;-91
2022/11/10 01:58:56;;;;;;;;;6.00;6.00;;;;;8.45;79.58;101294.75;6276507;22;45594;-90
2022/11/10 02:01:24;;;;;;;;;5.75;5.75;;;;;8.67;79.88;101338.66;6279342;22;47280;-92
2022/11/10 02:03:58;;;;;;;;;6.50;6.50;;;;;7.94;80.03;101213.03;6254028;22;45186;-90
2022/11/10 02:06:27;;;;;;;;;8.25;6.50;;;;;7.17;79.87;101082.25;6276254;22;45369;-90
2022/11/10 02:08:53;;;;;;;;;9.50;9.50;;;;;8.29;80.02;101273.63;6258303;22;45238;-91
2022/11/10 02:11:20;;;;;;;;;9.00;9.00;;;;;7.53;80.24;101164.75;6275354;22;46128;-90
2022/11/10 02:13:46;;;;;;;;;7.50;7.50;;;;;8.48;79.75;101315.81;6283355;22;45363;-90
2022/11/10 02:16:11;;;;;;;;;7.00;7.00;;;;;7.45;80.07;101140.16;6288147;22;45219;-92
2022/11/10 02:18:37;;;;;;;;;11.50;9.75;;;;;8.08;80.00;101244.66;6283251;22;45112;-91
2022/11/10 02:21:07;;;;;;;;;9.00;8.50;;;;;8.09;80.05;101246.41;6255328;22;48484;-91
2022/11/10 02:23:36;;;;;;;;;11.00;8.75;;;;;9.05;79.93;101406.31;6278417;22;45391;-90
2022/11/10 02:26:04;;;;;;;;;7.75;7.75;;;;;9.05;80.47;101421.28;6276883;22;45222;-90
2022/11/10 02:28:35;;;;;;;;;7.25;7.25;;;;;8.62;80.25;101329.00;6282284;22;45162;-91
2022/11/10 02:31:04;;;;;;;;;8.50;6.00;;;;;7.40;79.74;101139.28;6280174;22;46303;-90
2022/11/10 02:33:30;;;;;;;;;6.25;6.00;;;;;8.64;80.13;101338.66;6257437;22;45175;-91
2022/11/10 02:35:58;;;;;;;;;5.00;5.00;;;;;7.58;80.34;101162.13;6256854;22;45265;-91
2022/11/10 02:38:24;;;;;;;;;4.00;4.00;;;;;7.88;80.00;101207.75;6285393;22;45230;-92
2022/11/10 02:40:49;;;;;;;;;5.75;4.75;;;;;7.91;79.97;101236.72;6283240;22;45591;-91
2022/11/10 02:43:19;;;;;;;;;7.25;6.00;;;;;7.80;79.83;101205.13;6258791;22;45423;-90
2022/11/10 02:45:45;;;;;;;;;7.75;6.25;;;;;7.91;80.21;101241.97;6281846;22;45159;-91
2022/11/10 02:48:14;;;;;;;;;7.00;6.25;;;;;8.58;80.52;101343.94;6283792;22;45633;-90
2022/11/10 02:50:40;;;;;;;;;9.25;7.00;;;;;7.93;80.85;101248.16;6285487;22;46934;-89
2022/11/10 02:53:07;;;;;;;;;9.00;8.00;;;;;8.03;80.17;101252.53;6280317;22;45251;-91
2022/11/10 02:55:32;;;;;;;;;9.25;8.00;;;;;8.98;80.53;101428.28;6251365;22;45123;-91
2022/11/10 02:58:12;;;;;;;;;5.75;3.00;;;;;8.65;80.17;101364.13;6255426;22;44840;-93
2022/11/10 03:00:37;;;;;;;;;6.50;5.50;;;;;7.35;80.27;101152.44;6251857;22;47076;-91
2022/11/10 03:03:04;;;;;;;;;6.00;6.00;;;;;7.81;80.18;101220.03;6280986;22;45278;-93
2022/11/10 03:05:39;;;;;;;;;7.25;6.75;;;;;8.94;80.90;101418.59;6280053;22;45347;-92
2022/11/10 03:08:04;;;;;;;;;5.25;5.25;;;;;7.78;80.49;101235.81;6262416;22;45320;-93
2022/11/10 03:10:30;;;;;;;;;5.75;5.75;;;;;8.93;80.62;101422.16;6263436;22;46516;-90
2022/11/10 03:12:58;;;;;;;;;6.75;6.75;;;;;8.90;80.52;101432.69;6279921;22;45346;-90
2022/11/10 03:15:24;;;;;;;;;5.25;4.50;;;;;7.98;80.86;101273.56;6283189;22;45135;-93
2022/11/10 03:17:50;;;;;;;;;2.75;1.00;;;;;7.02;80.38;101108.50;6284612;22;45200;-92
2022/11/10 03:20:17;;;;;;;;;11.50;9.50;;;;;8.15;80.17;101304.31;6261574;22;47125;-92
2022/11/10 03:22:43;;;;;;;;;7.00;7.00;;;;;7.89;80.50;101270.06;6284911;22;45331;-92
2022/11/10 03:25:10;;;;;;;;;7.00;7.00;;;;;8.83;80.59;101437.06;6255257;22;45341;-92
2022/11/10 03:27:37;;;;;;;;;9.00;6.00;;;;;8.81;80.85;101446.75;6279979;22;45122;-92
2022/11/10 03:30:04;;;;;;;;;11.00;8.25;;;;;7.73;80.61;101245.44;6275033;22;46891;-92
2022/11/10 03:32:30;;;;;;;;;9.00;7.75;;;;;8.22;80.31;101327.19;6253620;22;45684;-93
2022/11/10 03:34:58;;;;;;;;;6.50;5.75;;;;;8.54;80.80;101397.50;6257189;22;45206;-93
2022/11/10 03:37:25;;;;;;;;;9.25;6.25;;;;;7.93;80.94;101298.16;6282083;22;44795;-91
2022/11/10 03:39:50;;;;;;;;;6.75;6.75;;;;;7.37;80.62;101205.03;6289237;22;47959;-94
2022/11/10 03:42:16;;;;;;;;;9.00;6.75;;;;;7.41;80.60;101217.28;6257107;22;44662;-91
2022/11/10 03:44:42;;;;;;;;;6.00;4.75;;;;;8.71;80.97;101448.50;6283703;22;45254;-92
2022/11/10 03:47:08;;;;;;;;;6.25;6.00;;;;;8.09;81.12;101347.34;6278795;22;45173;-93
2022/11/10 03:49:36;;;;;;;;;8.50;8.50;;;;;8.50;80.66;101433.53;6277165;22;46774;-92
2022/11/10 03:52:01;;;;;;;;;8.00;6.00;;;;;8.05;81.11;101334.13;6257539;22;45351;-92
2022/11/10 03:54:28;;;;;;;;;9.25;6.25;;;;;8.25;80.79;101387.75;6286566;22;45276;-93
2022/11/10 03:56:53;;;;;;;;;7.00;7.00;;;;;7.54;80.67;101266.44;6256984;22;45304;-92
2022/11/10 03:59:22;;;;;;;;;8.50;7.75;;;;;7.75;80.55;101301.63;6288321;22;46553;-91
2022/11/10 04:01:48;;;;;;;;;4.25;4.25;;;;;8.03;80.82;101364.88;6291619;22;45195;-91
2022/11/10 04:09:43;;;;;;;;;6.50;5.50;;;;;7.61;80.89;101312.09;6290972;22;45205;-92
2022/11/10 04:17:50;;;;;;;;;8.00;6.25;;;;;8.27;80.74;101430.78;6101347;23;45351;-92
2022/11/10 04:20:16;;;;;;;;;10.25;9.75;;;;;7.56;80.79;101309.44;6078154;23;46300;-92
2022/11/10 04:25:25;;;;;;;;;6.50;6.50;;;;;7.84;80.97;101370.06;6103242;23;45257;-91
2022/11/10 04:27:51;;;;;;;;;6.50;6.50;;;;;6.56;80.54;101152.09;6107240;23;45241;-92
2022/11/10 04:30:17;;;;;;;;;6.00;6.00;;;;;8.39;80.95;101460.69;6077173;23;47013;-92
2022/11/10 04:32:42;;;;;;;;;5.75;5.25;;;;;7.21;81.03;101269.81;6051633;23;45419;-91
2022/11/10 04:35:12;;;;;;;;;6.25;6.25;;;;;7.18;81.20;101285.56;6092558;23;45525;-93
2022/11/10 04:37:37;;;;;;;;;9.00;9.00;;;;;7.51;81.04;101332.22;6105701;23;45254;-92
2022/11/10 04:40:03;;;;;;;;;7.75;7.25;;;;;7.19;81.38;101298.72;6102989;23;45257;-92
2022/11/10 04:42:30;;;;;;;;;7.25;7.25;;;;;8.30;81.22;101498.41;6105391;23;45250;-90
2022/11/10 04:44:56;;;;;;;;;7.25;7.00;;;;;7.00;80.87;101260.06;6101552;23;45193;-91
2022/11/10 04:47:21;;;;;;;;;9.75;7.25;;;;;7.86;81.27;101415.69;6073441;23;45262;-91
2022/11/10 04:49:49;;;;;;;;;6.75;6.00;;;;;7.78;81.67;101404.25;6100502;23;47174;-91
2022/11/10 04:52:16;;;;;;;;;7.25;5.25;;;;;7.62;81.29;101385.78;6224399;22;45321;-92
2022/11/10 04:54:41;;;;;;;;;7.25;7.25;;;;;6.96;81.17;101279.34;6250888;22;45876;-93
2022/11/10 04:57:07;;;;;;;;;6.00;4.75;;;;;7.15;80.74;101312.75;6278434;22;45616;-92
2022/11/10 04:59:32;;;;;;;;;11.00;8.50;;;;;7.55;81.23;101402.38;6285366;22;46868;-93
2022/11/10 05:01:58;;;;;;;;;8.50;8.00;;;;;7.21;81.46;101346.97;6293069;22;45134;-92
2022/11/10 05:04:24;;;;;;;;;6.00;6.00;;;;;6.23;81.22;101163.28;6289053;22;45186;-93
2022/11/10 05:06:49;;;;;;;;;7.25;6.00;;;;;7.89;81.38;101464.84;6286254;22;44955;-92
2022/11/10 05:09:17;;;;;;;;;5.50;5.50;;;;;7.78;81.56;101451.63;6262130;22;46000;-91
2022/11/10 05:11:43;;;;;;;;;8.50;6.50;;;;;7.71;81.38;101468.25;6256628;22;45278;-91
2022/11/10 05:14:10;;;;;;;;;7.75;7.75;;;;;7.46;81.43;101410.22;6255340;22;45403;-92
2022/11/10 05:16:36;;;;;;;;;5.00;5.00;;;;;7.66;81.79;101455.06;6281912;22;45202;-93
2022/11/10 05:19:04;;;;;;;;;8.00;8.00;;;;;7.16;81.81;101389.88;6255504;22;46143;-93
2022/11/10 05:21:30;;;;;;;;;9.00;8.00;;;;;7.17;81.33;101392.50;6250756;22;45156;-92
2022/11/10 05:23:56;;;;;;;;;10.00;8.25;;;;;7.12;81.77;101381.06;6277882;22;45206;-93
2022/11/10 05:26:21;;;;;;;;;9.75;9.00;;;;;7.43;81.51;101444.41;6259104;22;44792;-92
2022/11/10 05:28:47;;;;;;;;;6.00;6.00;;;;;8.03;81.27;101542.16;6290798;22;45499;-92
2022/11/10 05:31:12;;;;;;;;;7.25;6.00;;;;;6.30;81.52;101249.09;6257308;22;45396;-92
2022/11/10 05:33:39;;;;;;;;;10.25;10.25;;;;;8.01;81.80;101559.69;6256779;22;45298;-92
2022/11/10 05:36:06;;;;;;;;;11.25;10.00;;;;;7.72;81.11;101506.88;6289608;22;45252;-92
2022/11/10 05:38:32;;;;;;;;;12.25;9.50;;;;;8.00;81.73;101569.34;6258675;22;46120;-93
2022/11/10 05:51:46;;;;;;;;;9.25;6.00;;;;;7.91;82.06;101558.78;6284440;22;45246;-92
2022/11/10 05:54:12;;;;;;;;;7.25;7.25;;;;;7.23;80.98;101452.16;6286734;22;45233;-92
2022/11/10 05:56:37;;;;;;;;;7.75;6.00;;;;;7.15;81.15;101441.59;6261146;22;45242;-91
2022/11/10 05:59:03;;;;;;;;;8.25;6.00;;;;;5.93;81.38;101225.09;6281845;22;45339;-92
2022/11/10 06:01:29;;;;;;;;;11.25;7.25;;;;;6.12;81.43;101278.69;6265266;22;47049;-92
2022/11/10 06:03:54;;;;;;;;;4.00;4.00;;;;;6.92;81.35;101413.38;6268862;22;44695;-92
2022/11/10 06:06:44;;;;;;;;;8.00;8.00;;;;;7.45;81.37;101496.16;6269842;22;44749;-92
2022/11/10 06:09:12;;;;;;;;;7.75;7.75;;;;;6.91;81.64;101408.97;6262212;22;45182;-91
2022/11/10 06:11:38;;;;;;;;;16.00;11.25;;;;;6.21;81.55;101281.41;6289131;22;46713;-92
2022/11/10 06:14:04;;;;;;;;;11.00;11.00;;;;;7.88;81.89;101574.53;6291958;22;45355;-92
2022/11/10 06:16:38;;;;;;;;;7.75;7.75;;;;;6.91;81.72;101406.34;6264083;22;44690;-92
2022/11/10 06:19:05;;;;;;;;;10.50;9.50;;;;;7.02;81.39;101459.00;6286713;22;45289;-91
2022/11/10 06:21:31;;;;;;;;;5.75;5.75;;;;;6.49;81.53;101351.66;6252893;22;46016;-93
2022/11/10 06:23:57;;;;;;;;;10.75;9.75;;;;;7.45;81.35;101532.09;6257674;22;45269;-93
2022/11/10 06:26:24;;;;;;;;;9.50;9.50;;;;;7.87;81.94;101577.16;6289603;22;45292;-92
2022/11/10 06:28:51;;;;;;;;;10.25;10.25;;;;;6.84;82.42;101406.28;6259711;22;45209;-92
2022/11/10 06:31:19;;;;;;;;;10.00;9.00;;;;;7.40;82.13;101510.16;6260307;22;45504;-92
2022/11/10 06:33:44;;;;;;;;;8.25;6.25;;;;;6.93;81.74;101433.50;6259182;22;45367;-92
2022/11/10 06:36:10;;;;;;;;;9.50;8.50;;;;;6.56;82.55;101382.38;6290519;22;45240;-92
2022/11/10 06:41:32;;;;;;;;;8.00;4.75;;;;;6.72;82.23;101423.69;6293166;22;45497;-91
2022/11/10 06:43:58;;;;;;;;;5.50;5.50;;;;;6.67;82.12;101421.88;6282198;22;45275;-92
2022/11/10 06:46:24;;;;;;;;;6.50;6.50;;;;;6.65;82.09;101416.63;6285407;22;45143;-92
2022/11/10 06:48:51;;;;;;;;;8.75;6.50;;;;;7.02;82.15;101485.28;6259591;22;45167;-92
2022/11/10 06:51:17;;;;;;;;;12.25;9.50;;;;;7.78;82.64;101622.72;6262382;22;45351;-93
2022/11/10 06:53:46;;;;;;;;;8.75;7.00;;;;;6.65;82.07;101435.00;6285931;22;45442;-92
2022/11/10 06:56:12;;;;;;;;;10.25;9.00;;;;;6.30;82.16;101382.09;6278574;22;45378;-93
2022/11/10 06:58:41;;;;;;;;;8.25;6.50;;;;;6.15;82.33;101364.44;6257953;22;45538;-95
2022/11/10 07:01:08;;;;;;;;;8.25;8.25;;;;;7.43;82.75;101565.41;6266449;22;46105;-93
2022/11/10 07:03:48;;;;;;;;;9.50;6.00;;;;;7.80;82.48;101645.56;6261810;22;45438;-93
2022/11/10 07:06:14;;;;;;;;;9.00;9.00;;;;;7.38;82.66;101567.09;6289260;22;45169;-94
2022/11/10 07:08:39;;;;;;;;;10.75;7.75;;;;;7.45;82.40;101587.34;6264185;22;44837;-93
2022/11/10 07:11:05;;;;;;;;;0.00;0.00;;;;;6.16;82.20;101363.59;6285738;22;47841;-92
2022/11/10 07:13:30;;;;;;;;;9.75;8.50;;;;;6.97;82.54;101528.16;6255006;22;45221;-91
2022/11/10 07:15:56;;;;;;;;;8.00;7.25;;;;;6.95;83.09;101501.84;6283975;22;45380;-92
2022/11/10 07:18:22;;;;;;;;;7.75;7.75;;;;;6.06;82.38;101373.13;6257134;22;45207;-92
2022/11/10 07:20:49;;;;;;;;;7.50;7.50;;;;;6.73;82.02;101491.13;6281119;22;47464;-92
2022/11/10 07:23:14;;;;;;;;;11.00;11.00;;;;;7.89;82.28;101676.31;6281380;22;46154;-93
2022/11/10 07:25:41;;;;;;;;;4.00;2.50;;;;;6.21;82.24;101404.78;6289339;22;45364;-91
2022/11/10 07:28:09;;;;;;;;;9.00;7.25;;;;;5.83;82.05;101323.84;6286150;22;45254;-91
2022/11/10 07:30:34;;;;;;;;;10.75;8.00;;;;;6.32;82.51;101410.16;6281013;22;46789;-94
2022/11/10 07:33:20;;;;;;;;;8.00;7.75;;;;;7.98;81.91;101679.03;6282221;22;45230;-92
2022/11/10 07:35:54;;;;;;;;;3.00;2.00;;;;;7.40;82.84;101565.38;6266933;22;44806;-92
2022/11/10 07:38:19;;;;;;;;;9.00;9.00;;;;;6.86;82.28;101492.16;6286863;22;45126;-93
2022/11/10 07:40:45;;;;;;;;;9.00;9.00;;;;;8.17;82.16;101702.91;6286204;22;46921;-90
2022/11/10 07:47:49;;;;;;;;;10.25;10.25;;;;;8.54;81.39;101706.69;6196905;23;45373;-90
2022/11/10 07:50:15;;;;;;;;;10.00;9.00;;;;;8.42;81.45;101637.19;6164024;23;45370;-90
2022/11/10 07:52:41;;;;;;;;;13.25;10.50;;;;;7.25;80.82;101398.69;6158298;23;47025;-92
2022/11/10 07:55:07;;;;;;;;;7.00;7.00;;;;;8.34;80.34;101559.00;6183879;23;45414;-88
2022/11/10 07:58:09;;;;;;;;;8.50;8.50;;;;;9.20;80.60;101656.03;6191807;23;45422;-91
2022/11/10 08:04:14;;;;;;;;;9.00;9.00;;;;;9.83;79.88;101639.38;6196135;23;45673;-91
2022/11/10 08:06:40;;;;;;;;;9.75;9.00;;;;;10.64;79.32;101730.06;6187702;23;45179;-90
2022/11/10 08:13:17;;;;;;;;;10.50;8.00;;;;;11.64;78.26;101755.25;6112085;23;45323;-91
2022/11/10 08:15:45;;;;;;;;;11.25;11.25;;;;;11.35;78.42;101656.56;6083358;23;46230;-91
2022/11/10 08:18:25;;;;;;;;;14.00;10.00;;;;;11.59;78.15;101669.69;6168421;23;45400;-93
2022/11/10 08:20:51;;;;;;;;;11.00;11.00;;;;;11.71;78.35;101664.31;6165851;23;45407;-92
2022/11/10 08:23:20;;;;;;;;;12.00;12.00;;;;;10.81;77.24;101502.56;6139523;23;45264;-92
2022/11/10 08:25:46;;;;;;;;;14.50;14.50;;;;;11.44;76.71;101594.75;6163219;23;47726;-92
2022/11/10 08:28:16;;;;;;;;;13.75;12.00;;;;;11.72;76.65;101628.97;6147698;23;44676;-92
2022/11/10 08:30:45;;;;;;;;;14.25;11.25;;;;;11.97;77.12;101663.25;6188157;23;45384;-92
2022/11/10 08:33:13;;;;;;;;;9.50;9.50;;;;;11.19;77.05;101528.78;6165993;23;45275;-92
2022/11/10 08:35:44;;;;;;;;;15.25;12.50;;;;;11.89;76.11;101653.56;6188256;23;46290;-92
2022/11/10 08:38:25;;;;;;;;;9.00;9.00;;;;;11.63;76.24;101605.19;6164732;23;45238;-91
2022/11/10 08:40:50;;;;;;;;;14.50;12.25;;;;;11.85;76.40;101635.06;6184779;23;45344;-91
2022/11/10 08:43:17;;;;;;;;;16.25;16.00;;;;;11.40;76.52;101547.16;6185056;23;45367;-90
2022/11/10 08:45:44;;;;;;;;;14.75;12.50;;;;;11.23;75.84;101515.53;6162811;23;46888;-91
2022/11/10 08:48:17;;;;;;;;;12.50;10.25;;;;;11.79;76.30;101630.69;6227701;22;45167;-91
2022/11/10 08:50:43;;;;;;;;;16.50;14.00;;;;;12.71;76.36;101792.50;6284574;22;45157;-91
2022/11/10 08:53:17;;;;;;;;;16.00;13.00;;;;;12.01;76.60;101695.00;6289163;22;45456;-91
2022/11/10 08:55:44;;;;;;;;;16.50;14.00;;;;;11.56;76.46;101636.16;6287149;22;45630;-90
2022/11/10 08:58:17;;;;;;;;;20.50;18.75;;;;;11.55;75.66;101656.47;6290096;22;45186;-90
2022/11/10 09:00:43;;;;;;;;;13.75;13.75;;;;;12.17;75.82;101808.84;6282267;22;45252;-89
2022/11/10 09:03:18;;;;;;;;;14.75;13.50;;;;;11.70;76.26;101769.34;6283123;22;45245;-91
2022/11/10 09:05:44;;;;;;;;;17.25;16.00;;;;;10.43;75.99;101578.56;6280725;22;46888;-89
2022/11/10 09:08:10;;;;;;;;;17.00;14.25;;;;;10.62;76.72;101628.72;6282802;22;45231;-92
2022/11/10 09:10:39;;;;;;;;;15.25;15.25;;;;;11.09;76.90;101733.47;6256566;22;45155;-92
2022/11/10 09:13:05;;;;;;;;;13.75;13.75;;;;;11.07;77.52;101774.94;6254303;22;44911;-92
2022/11/10 09:15:34;;;;;;;;;18.75;16.25;;;;;10.66;77.05;101709.81;6240480;22;47199;-87
2022/11/10 09:18:02;;;;;;;;;15.00;14.00;;;;;10.91;77.02;101782.00;6282067;22;45381;-89
2022/11/10 09:20:29;;;;;;;;;13.00;11.00;;;;;10.86;77.74;101794.38;6281950;22;45317;-91
2022/11/10 09:22:55;;;;;;;;;12.25;11.75;;;;;10.41;77.62;101723.03;6277105;22;45257;-89
2022/11/10 09:25:22;;;;;;;;;14.50;13.00;;;;;10.39;77.84;101722.19;6277562;22;45357;-89
2022/11/10 09:27:47;;;;;;;;;17.50;13.50;;;;;10.78;77.56;101802.31;6284060;22;45416;-89
2022/11/10 09:30:13;;;;;;;;;14.25;14.25;;;;;10.13;77.86;101682.53;6280571;22;45395;-90
2022/11/10 09:32:39;;;;;;;;;20.75;14.25;;;;;10.74;78.13;101791.75;6283815;22;45333;-89
2022/11/10 09:35:05;;;;;;;;;17.25;15.25;;;;;10.49;78.13;101754.75;6276198;22;45203;-90
2022/11/10 09:37:30;;;;;;;;;9.50;9.25;;;;;10.37;78.23;101747.72;6251536;22;45576;-90
2022/11/10 09:39:55;;;;;;;;;19.25;15.75;;;;;9.60;78.24;101626.19;6255466;22;45193;-90
2022/11/10 09:42:30;;;;;;;;;13.75;12.00;;;;;10.90;78.03;101853.44;6254131;22;45249;-90
2022/11/10 09:45:19;;;;;;;;;14.75;14.75;;;;;9.41;77.81;101609.44;6250047;22;46643;-90
2022/11/10 09:47:46;;;;;;;;;14.00;13.00;;;;;10.80;78.21;101855.22;6279157;22;45244;-89
2022/11/10 09:50:25;;;;;;;;;16.00;15.00;;;;;10.74;78.11;101863.16;6255041;22;44713;-90
2022/11/10 09:52:52;;;;;;;;;16.00;14.00;;;;;9.57;77.70;101686.91;6277699;22;45284;-89
2022/11/10 09:55:42;;;;;;;;;17.00;15.00;;;;;10.11;78.25;101782.94;6279453;22;45374;-90
2022/11/10 09:58:12;;;;;;;;;14.25;12.50;;;;;9.51;78.69;101673.69;6276232;22;45859;-88
2022/11/10 10:00:41;;;;;;;;;23.50;18.75;;;;;9.55;78.10;101678.06;6281170;22;45205;-89
2022/11/10 10:03:16;;;;;;;;;17.25;15.75;;;;;9.93;78.43;101748.56;6257436;22;45227;-88
2022/11/10 10:05:56;;;;;;;;;17.00;15.50;;;;;10.58;78.71;101862.25;6282976;22;47076;-90
2022/11/10 10:08:55;;;;;;;;;15.75;15.00;;;;;10.02;78.88;101764.44;6283620;22;45233;-88
2022/11/10 10:11:46;;;;;;;;;22.00;18.50;;;;;10.62;78.78;101864.03;6282856;22;45361;-91
2022/11/10 10:14:33;;;;;;;;;19.75;17.00;;;;;9.97;78.65;101752.94;6284862;22;45165;-91
2022/11/10 10:17:16;;;;;;;;;15.75;13.75;;;;;10.63;78.84;101865.81;6283279;22;45453;-89
2022/11/10 10:19:59;;;;;;;;;23.00;17.25;;;;;10.13;78.96;101781.16;6284126;22;45123;-90
2022/11/10 10:22:37;;;;;;;;;17.25;17.25;;;;;10.93;78.94;101890.47;6286850;22;44670;-88
2022/11/10 10:25:12;;;;;;;;;16.50;15.25;;;;;10.73;78.54;101843.75;6286273;22;45467;-90
2022/11/10 10:27:41;;;;;;;;;18.50;17.25;;;;;10.54;78.15;101810.28;6292175;22;46943;-89
2022/11/10 10:30:12;;;;;;;;;24.50;21.00;;;;;10.45;78.58;101788.25;6280209;22;45411;-88
2022/11/10 10:32:38;;;;;;;;;17.25;16.75;;;;;11.07;78.25;101894.00;6282711;22;45332;-90
2022/11/10 10:35:03;;;;;;;;;16.50;15.25;;;;;11.19;78.50;101906.34;6281549;22;45525;-90
2022/11/10 10:37:37;;;;;;;;;13.75;13.75;;;;;10.46;78.66;101784.72;6280628;22;45455;-92
2022/11/10 10:40:03;;;;;;;;;17.25;15.75;;;;;10.03;78.80;101702.78;6278238;22;45580;-92
2022/11/10 10:42:33;;;;;;;;;16.00;14.00;;;;;9.56;77.93;101629.69;6261880;22;45436;-91
2022/11/10 10:45:23;;;;;;;;;17.00;16.00;;;;;11.34;78.26;101931.88;6290703;22;44804;-90
2022/11/10 10:48:49;;;;;;;;;20.00;19.00;;;;;10.37;77.98;101773.25;6273274;22;45340;-91
2022/11/10 10:51:52;;;;;;;;;20.50;20.00;;;;;10.68;78.23;101840.22;6154223;23;45377;-91
2022/11/10 10:54:31;;;;;;;;;24.25;19.50;;;;;10.65;78.69;101832.31;6163389;23;45534;-92
2022/11/10 10:57:18;;;;;;;;;20.50;18.75;;;;;9.52;78.68;101654.31;6165478;23;45628;-92
2022/11/10 10:59:53;;;;;;;;;25.00;20.75;;;;;10.38;78.67;101815.53;6138912;23;46802;-92
2022/11/10 11:06:34;;;;;;;;;24.75;18.75;;;;;11.11;78.72;101932.78;6081330;23;45165;-93
2022/11/10 11:09:21;;;;;;;;;19.50;17.75;;;;;11.02;78.70;101931.03;6011607;23;45592;-91
2022/11/10 11:12:07;;;;;;;;;19.00;17.00;;;;;9.25;78.70;101624.38;6017336;23;46813;-92
2022/11/10 11:14:32;;;;;;;;;22.50;17.50;;;;;10.49;79.38;101848.16;5993360;23;44773;-91
2022/11/10 11:17:31;;;;;;;;;17.25;14.75;;;;;9.96;79.15;101762.66;6018951;23;45346;-93
2022/11/10 11:20:00;;;;;;;;;16.25;14.50;;;;;9.63;79.68;101697.47;6014197;23;44899;-92
2022/11/10 11:22:50;;;;;;;;;17.25;17.00;;;;;10.14;79.38;101784.66;6041485;23;46797;-89
2022/11/10 11:25:41;;;;;;;;;17.50;16.50;;;;;11.02;79.75;101925.75;6055573;23;44666;-92
2022/11/10 11:28:35;;;;;;;;;20.50;19.25;;;;;10.35;79.69;101773.25;6078412;23;45166;-90
2022/11/10 11:31:08;;;;;;;;;15.50;14.50;;;;;11.33;79.65;101911.59;6211350;22;45536;-92
2022/11/10 11:33:55;;;;;;;;;14.00;13.75;;;;;11.59;79.42;101914.19;6311290;22;47284;-90
2022/11/10 11:39:31;;;;;;;;;19.50;18.00;;;;;11.50;79.01;101854.19;6318371;22;45244;-92
2022/11/10 11:42:17;;;;;;;;;19.50;17.25;;;;;11.31;78.60;101796.88;6317301;22;44950;-94
2022/11/10 11:45:21;;;;;;;;;11.50;11.50;;;;;10.23;78.65;101577.72;6262382;22;45455;-93
2022/11/10 11:48:28;;;;;;;;;13.50;7.50;;;;;12.51;77.78;101911.97;6227688;22;44616;-92
2022/11/10 11:51:00;;;;;;;;;13.00;11.75;;;;;11.30;76.97;101639.00;6075731;23;45237;-94
2022/11/10 11:53:42;;;;;;;;;19.75;15.50;;;;;11.42;77.01;101636.25;6055862;23;44859;-93
2022/11/10 11:56:30;;;;;;;;;20.75;15.75;;;;;13.27;76.08;101899.84;6078490;23;45435;-95
2022/11/10 11:59:26;;;;;;;;;15.50;13.00;;;;;13.31;76.20;101901.56;6083641;23;44736;-94
2022/11/10 12:05:48;;;;;;;;;16.00;14.75;;;;;12.39;76.45;101780.38;6076563;23;45415;-92
2022/11/10 12:12:12;;;;;;;;;14.25;14.25;;;;;12.69;77.07;101905.66;6081880;23;45287;-91
2022/11/10 12:15:22;;;;;;;;;25.00;18.75;;;;;11.52;77.47;101733.28;6048090;23;45359;-92
2022/11/10 12:18:03;;;;;;;;;23.25;20.00;;;;;11.32;77.26;101729.84;5984123;23;45250;-93
2022/11/10 12:20:50;;;;;;;;;16.00;12.50;;;;;11.88;77.62;101836.38;5981656;23;47176;-93
2022/11/10 12:23:53;;;;;;;;;19.75;18.00;;;;;10.68;77.90;101663.06;5993900;23;45236;-93
2022/11/10 12:26:27;;;;;;;;;16.50;13.25;;;;;12.12;78.29;101917.53;6074306;23;45276;-91
2022/11/10 12:28:58;;;;;;;;;16.75;16.00;;;;;12.06;78.26;101915.78;6142354;23;44872;-92
2022/11/10 12:31:28;;;;;;;;;14.50;14.50;;;;;11.51;78.44;101831.25;6139527;23;46016;-93
2022/11/10 12:34:26;;;;;;;;;13.75;12.50;;;;;11.50;78.59;101846.22;6129509;23;45314;-91
2022/11/10 12:37:20;;;;;;;;;17.00;16.50;;;;;11.43;78.98;101819.78;5987746;23;45218;-92
2022/11/10 12:39:57;;;;;;;;;19.50;15.25;;;;;12.08;79.19;101919.28;6009528;23;45266;-91
2022/11/10 12:42:27;;;;;;;;;16.50;15.00;;;;;12.20;79.19;101917.47;6012724;23;46711;-92
2022/11/10 12:45:01;;;;;;;;;16.25;16.25;;;;;12.35;79.27;101916.53;6011946;23;45256;-90